createdAt,value
2019-03-09T00:00:33.694Z,2.10
2019-03-09T00:03:02.388Z,1.90
2019-03-09T00:05:31.085Z,2.30
2019-03-09T00:08:00.354Z,1.77
2019-03-09T00:10:29.525Z,4.03
2019-03-09T00:12:58.409Z,2.53
2019-03-09T00:15:27.746Z,2.60
2019-03-09T00:17:56.414Z,2.17
2019-03-09T00:20:25.095Z,3.77
2019-03-09T00:23:01.052Z,3.90
2019-03-09T00:25:33.984Z,2.40
2019-03-09T00:28:20.742Z,2.43
2019-03-09T00:30:58.606Z,2.70
2019-03-09T00:33:30.462Z,1.80
2019-03-09T00:35:59.170Z,2.27
2019-03-09T00:38:28.458Z,2.27
2019-03-09T00:40:57.301Z,3.63
2019-03-09T00:43:25.960Z,2.27
2019-03-09T00:45:54.946Z,3.00
2019-03-09T00:48:24.331Z,1.97
2019-03-09T00:50:52.982Z,2.73
2019-03-09T00:53:21.713Z,2.07
2019-03-09T00:55:50.394Z,2.50
2019-03-09T00:58:19.119Z,2.50
2019-03-09T01:00:48.029Z,2.70
2019-03-09T01:03:16.855Z,2.20
2019-03-09T01:05:45.686Z,2.77
2019-03-09T01:08:14.365Z,2.87
2019-03-09T01:10:43.411Z,2.17
2019-03-09T01:13:12.146Z,2.62
2019-03-09T01:15:40.906Z,2.47
2019-03-09T01:18:10.679Z,2.60
2019-03-09T01:20:39.366Z,2.60
2019-03-09T01:23:08.088Z,2.53
2019-03-09T01:25:37.079Z,2.80
2019-03-09T01:28:05.898Z,3.50
2019-03-09T01:30:34.713Z,2.93
2019-03-09T01:33:03.520Z,3.43
2019-03-09T01:35:32.214Z,3.23
2019-03-09T01:38:01.102Z,2.83
2019-03-09T01:40:30.249Z,3.27
2019-03-09T01:42:58.916Z,2.30
2019-03-09T01:45:27.642Z,3.60
2019-03-09T01:47:56.429Z,2.70
2019-03-09T01:50:25.178Z,2.77
2019-03-09T01:52:54.200Z,3.00
2019-03-09T01:55:23.123Z,3.47
2019-03-09T01:57:52.118Z,2.93
2019-03-09T02:00:21.437Z,3.13
2019-03-09T02:02:50.901Z,3.13
2019-03-09T02:05:20.175Z,2.97
2019-03-09T02:07:49.416Z,2.93
2019-03-09T02:10:18.691Z,3.90
2019-03-09T02:12:47.457Z,2.97
2019-03-09T02:15:16.504Z,3.07
2019-03-09T02:17:45.607Z,3.50
2019-03-09T02:20:14.856Z,3.83
2019-03-09T02:22:44.185Z,2.77
2019-03-09T02:25:13.641Z,3.57
2019-03-09T02:27:42.301Z,3.83
2019-03-09T02:30:11.582Z,3.93
2019-03-09T02:32:40.590Z,4.00
2019-03-09T02:35:09.830Z,3.53
2019-03-09T02:37:38.699Z,3.63
2019-03-09T02:40:12.542Z,3.07
2019-03-09T02:42:41.462Z,3.70
2019-03-09T02:45:12.155Z,3.50
2019-03-09T02:47:41.334Z,4.00
2019-03-09T02:50:11.458Z,3.13
2019-03-09T02:52:40.356Z,3.20
2019-03-09T02:55:12.294Z,3.00
2019-03-09T02:57:41.022Z,4.00
2019-03-09T03:00:12.863Z,3.23
2019-03-09T03:02:47.949Z,3.30
2019-03-09T03:05:19.651Z,3.50
2019-03-09T03:07:48.391Z,3.30
2019-03-09T03:10:17.243Z,2.93
2019-03-09T03:12:45.989Z,3.13
2019-03-09T03:15:28.390Z,3.80
2019-03-09T03:17:57.437Z,3.50
2019-03-09T03:20:26.171Z,3.90
2019-03-09T03:22:54.876Z,2.63
2019-03-09T03:25:23.866Z,3.33
2019-03-09T03:27:52.527Z,3.13
2019-03-09T03:30:21.570Z,3.50
2019-03-09T03:32:51.543Z,3.20
2019-03-09T03:35:20.185Z,2.30
2019-03-09T03:37:49.444Z,2.87
2019-03-09T03:40:18.261Z,3.40
2019-03-09T03:42:49.887Z,3.43
2019-03-09T03:45:19.584Z,3.43
2019-03-09T03:47:48.347Z,2.90
2019-03-09T03:50:17.114Z,3.33
2019-03-09T03:52:46.035Z,3.13
2019-03-09T03:55:14.677Z,3.93
2019-03-09T03:57:44.284Z,2.73
2019-03-09T04:00:13.689Z,3.10
2019-03-09T04:02:43.395Z,3.83
2019-03-09T04:05:12.501Z,3.20
2019-03-09T04:07:41.943Z,3.03
2019-03-09T04:10:10.960Z,3.27
2019-03-09T04:12:40.145Z,2.70
2019-03-09T04:15:09.281Z,2.75
2019-03-09T04:17:38.485Z,2.40
2019-03-09T04:20:07.455Z,3.43
2019-03-09T04:22:36.546Z,3.17
2019-03-09T04:25:05.436Z,3.27
2019-03-09T04:27:34.151Z,3.23
2019-03-09T04:30:03.427Z,2.47
2019-03-09T04:32:32.611Z,2.70
2019-03-09T04:35:01.411Z,2.20
2019-03-09T04:37:30.159Z,3.37
2019-03-09T04:39:58.856Z,2.90
2019-03-09T04:42:28.061Z,2.10
2019-03-09T04:44:56.814Z,2.70
2019-03-09T04:47:25.709Z,2.80
2019-03-09T04:49:54.622Z,2.40
2019-03-09T04:52:23.973Z,2.42
2019-03-09T04:54:52.662Z,2.90
2019-03-09T04:57:21.325Z,2.80
2019-03-09T04:59:50.365Z,2.90
2019-03-09T05:02:19.042Z,2.73
2019-03-09T05:04:51.911Z,3.17
2019-03-09T05:07:39.361Z,2.80
2019-03-09T05:10:26.525Z,2.33
2019-03-09T05:12:59.113Z,3.33
2019-03-09T05:15:28.045Z,2.70
2019-03-09T05:17:56.709Z,2.43
2019-03-09T05:20:25.405Z,2.80
2019-03-09T05:22:54.305Z,2.50
2019-03-09T05:25:22.992Z,2.57
2019-03-09T05:27:51.770Z,2.83
2019-03-09T05:30:39.792Z,2.70
2019-03-09T05:33:08.761Z,2.80
2019-03-09T05:35:37.802Z,3.07
2019-03-09T05:38:06.729Z,2.20
2019-03-09T05:40:35.776Z,2.77
2019-03-09T05:43:04.677Z,2.90
2019-03-09T05:45:33.754Z,2.50
2019-03-09T05:48:02.781Z,2.83
2019-03-09T05:50:31.616Z,2.83
2019-03-09T05:53:12.144Z,3.33
2019-03-09T05:55:40.981Z,2.47
2019-03-09T05:58:09.896Z,3.13
2019-03-09T06:00:39.768Z,3.23
2019-03-09T06:03:08.477Z,2.63
2019-03-09T06:05:42.177Z,2.47
2019-03-09T06:08:10.954Z,2.70
2019-03-09T06:10:40.086Z,2.60
2019-03-09T06:13:08.967Z,2.83
2019-03-09T06:15:38.917Z,2.00
2019-03-09T06:18:07.898Z,3.20
2019-03-09T06:20:36.816Z,2.43
2019-03-09T06:23:05.973Z,2.63
2019-03-09T06:25:34.718Z,3.03
2019-03-09T06:28:03.530Z,2.97
2019-03-09T06:30:32.301Z,1.87
2019-03-09T06:33:20.951Z,2.33
2019-03-09T06:35:55.373Z,2.47
2019-03-09T06:38:54.761Z,2.60
2019-03-09T06:41:28.401Z,2.65
2019-03-09T06:43:57.291Z,2.50
2019-03-09T06:46:26.085Z,2.87
2019-03-09T06:48:54.912Z,2.43
2019-03-09T06:51:23.583Z,1.90
2019-03-09T06:53:52.830Z,2.60
2019-03-09T06:56:21.595Z,2.10
2019-03-09T06:58:50.447Z,2.57
2019-03-09T07:01:20.859Z,2.57
2019-03-09T07:03:49.983Z,2.43
2019-03-09T07:06:18.829Z,2.17
2019-03-09T07:08:47.569Z,2.03
2019-03-09T07:11:16.305Z,3.00
2019-03-09T07:13:52.469Z,1.87
2019-03-09T07:16:15.841Z,1.83
2019-03-09T07:18:44.669Z,2.07
2019-03-09T07:21:13.405Z,2.00
2019-03-09T07:23:42.077Z,2.23
2019-03-09T07:26:10.874Z,1.67
2019-03-09T07:28:39.911Z,1.95
2019-03-09T07:31:10.822Z,1.67
2019-03-09T07:33:41.904Z,1.77
2019-03-09T07:36:10.580Z,2.10
2019-03-09T07:38:39.226Z,1.70
2019-03-09T07:41:08.210Z,2.00
2019-03-09T07:43:36.905Z,1.93
2019-03-09T07:46:05.598Z,2.17
2019-03-09T07:48:34.663Z,2.40
2019-03-09T07:51:03.414Z,2.10
2019-03-09T07:53:32.261Z,2.03
2019-03-09T07:56:01.467Z,2.23
2019-03-09T07:58:30.148Z,1.27
2019-03-09T08:00:58.813Z,1.10
2019-03-09T08:03:27.936Z,1.37
2019-03-09T08:05:56.755Z,1.67
2019-03-09T08:08:25.408Z,1.30
2019-03-09T08:10:54.174Z,1.50
2019-03-09T08:13:22.880Z,1.20
2019-03-09T08:15:51.959Z,1.40
2019-03-09T08:18:20.829Z,1.87
2019-03-09T08:20:52.649Z,0.90
2019-03-09T08:23:21.329Z,0.90
2019-03-09T08:25:51.491Z,1.50
2019-03-09T08:28:20.532Z,0.90
2019-03-09T08:30:49.278Z,1.33
2019-03-09T08:33:18.089Z,1.47
2019-03-09T08:35:46.888Z,1.30
2019-03-09T08:38:15.551Z,1.20
2019-03-09T08:40:44.648Z,2.00
2019-03-09T08:43:13.360Z,1.07
2019-03-09T08:45:42.075Z,1.10
2019-03-09T08:48:11.395Z,1.27
2019-03-09T08:50:40.299Z,1.23
2019-03-09T08:53:09.023Z,1.00
2019-03-09T08:55:38.562Z,1.20
2019-03-09T08:58:08.007Z,1.43
2019-03-09T09:00:36.863Z,1.20
2019-03-09T09:03:05.798Z,0.67
2019-03-09T09:05:36.048Z,1.00
2019-03-09T09:08:04.709Z,1.20
2019-03-09T09:10:33.784Z,1.12
2019-03-09T09:13:02.505Z,1.40
2019-03-09T09:15:31.472Z,0.90
2019-03-09T09:18:00.645Z,0.75
2019-03-09T09:20:29.321Z,0.93
2019-03-09T09:22:58.006Z,1.30
2019-03-09T09:25:26.717Z,1.22
2019-03-09T09:27:55.398Z,1.10
2019-03-09T09:30:25.627Z,1.15
2019-03-09T09:32:54.456Z,1.42
2019-03-09T09:35:23.413Z,0.80
2019-03-09T09:37:52.338Z,1.07
2019-03-09T09:40:21.956Z,0.93
2019-03-09T09:42:51.092Z,1.45
2019-03-09T09:45:20.254Z,1.12
2019-03-09T09:47:48.946Z,2.65
2019-03-09T09:50:17.893Z,0.85
2019-03-09T09:52:46.812Z,1.02
2019-03-09T09:55:16.817Z,1.10
2019-03-09T09:57:45.739Z,1.35
2019-03-09T10:00:16.978Z,1.37
2019-03-09T10:02:46.306Z,1.10
2019-03-09T10:05:15.318Z,1.50
2019-03-09T10:07:44.126Z,1.10
2019-03-09T10:10:14.668Z,1.22
2019-03-09T10:12:43.361Z,1.00
2019-03-09T10:15:14.569Z,1.22
2019-03-09T10:17:43.490Z,2.07
2019-03-09T10:20:12.302Z,1.77
2019-03-09T10:22:41.218Z,1.52
2019-03-09T10:25:10.351Z,4.37
2019-03-09T10:27:39.081Z,2.37
2019-03-09T10:30:09.214Z,3.00
2019-03-09T10:32:38.457Z,1.85
2019-03-09T10:35:07.897Z,1.32
2019-03-09T10:37:37.070Z,1.25
2019-03-09T10:40:06.430Z,2.12
2019-03-09T10:42:35.084Z,1.47
2019-03-09T10:45:04.487Z,2.08
2019-03-09T10:47:33.250Z,2.33
2019-03-09T10:50:01.910Z,2.25
2019-03-09T10:52:30.586Z,2.20
2019-03-09T10:54:59.329Z,1.50
2019-03-09T10:57:28.014Z,1.00
2019-03-09T10:59:56.685Z,1.70
2019-03-09T11:02:26.319Z,1.00
2019-03-09T11:04:55.257Z,1.17
2019-03-09T11:07:23.998Z,1.25
2019-03-09T11:09:52.769Z,1.77
2019-03-09T11:12:21.727Z,1.70
2019-03-09T11:14:50.927Z,1.30
2019-03-09T11:17:19.784Z,2.10
2019-03-09T11:19:48.691Z,2.07
2019-03-09T11:22:17.361Z,1.67
2019-03-09T11:24:46.389Z,1.05
2019-03-09T11:27:15.281Z,1.32
2019-03-09T11:29:43.990Z,0.90
2019-03-09T11:32:12.764Z,1.40
2019-03-09T11:34:41.759Z,1.07
2019-03-09T11:37:10.427Z,1.70
2019-03-09T11:39:39.455Z,1.43
2019-03-09T11:42:08.368Z,1.20
2019-03-09T11:44:37.032Z,1.25
2019-03-09T11:47:05.809Z,1.93
2019-03-09T11:49:34.484Z,1.20
2019-03-09T11:52:03.329Z,1.50
2019-03-09T11:54:32.326Z,1.70
2019-03-09T11:57:00.988Z,1.30
2019-03-09T11:59:29.649Z,1.57
2019-03-09T12:01:58.349Z,2.07
2019-03-09T12:04:27.217Z,2.05
2019-03-09T12:06:55.934Z,1.17
2019-03-09T12:09:25.941Z,1.62
2019-03-09T12:12:00.325Z,1.13
2019-03-09T12:14:29.344Z,1.85
2019-03-09T12:16:58.653Z,1.42
2019-03-09T12:19:27.617Z,1.22
2019-03-09T12:21:57.033Z,1.98
2019-03-09T12:24:26.508Z,1.62
2019-03-09T12:26:55.262Z,1.45
2019-03-09T12:29:24.206Z,1.50
2019-03-09T12:31:53.006Z,1.02
2019-03-09T12:34:21.689Z,1.60
2019-03-09T12:36:50.670Z,2.42
2019-03-09T12:39:19.452Z,1.27
2019-03-09T12:41:48.380Z,2.05
2019-03-09T12:44:17.290Z,2.62
2019-03-09T12:46:46.328Z,2.22
2019-03-09T12:49:15.031Z,1.27
2019-03-09T12:51:44.881Z,1.82
2019-03-09T12:54:14.142Z,1.70
2019-03-09T12:56:42.858Z,2.05
2019-03-09T12:59:11.773Z,1.72
2019-03-09T13:01:40.611Z,1.72
2019-03-09T13:04:12.598Z,1.85
2019-03-09T13:06:41.729Z,1.57
2019-03-09T13:09:10.962Z,1.70
2019-03-09T13:11:39.977Z,1.85
2019-03-09T13:14:08.702Z,1.47
2019-03-09T13:16:37.793Z,2.33
2019-03-09T13:19:06.689Z,2.08
2019-03-09T13:21:35.351Z,2.20
2019-03-09T13:24:04.294Z,2.12
2019-03-09T13:26:32.958Z,1.17
2019-03-09T13:29:01.670Z,2.12
2019-03-09T13:31:33.209Z,2.10
2019-03-09T13:34:01.857Z,1.75
2019-03-09T13:36:32.306Z,2.02
2019-03-09T13:39:01.151Z,1.75
2019-03-09T13:41:29.804Z,1.30
2019-03-09T13:43:58.486Z,2.03
2019-03-09T13:46:27.507Z,1.62
2019-03-09T13:48:56.171Z,1.57
2019-03-09T13:51:24.829Z,1.40
2019-03-09T13:53:53.599Z,1.85
2019-03-09T13:56:22.272Z,1.85
2019-03-09T13:58:50.963Z,1.42
2019-03-09T14:01:21.238Z,1.86
2019-03-09T14:03:49.964Z,1.67
2019-03-09T14:06:19.193Z,2.25
2019-03-09T14:08:49.437Z,1.72
2019-03-09T14:11:20.478Z,2.15
2019-03-09T14:13:49.361Z,2.02
2019-03-09T14:16:18.335Z,2.35
2019-03-09T14:18:47.006Z,2.50
2019-03-09T14:21:15.705Z,1.87
2019-03-09T14:23:44.971Z,2.83
2019-03-09T14:26:13.660Z,2.75
2019-03-09T14:28:42.661Z,2.20
2019-03-09T14:31:11.645Z,3.05
2019-03-09T14:33:40.546Z,3.00
2019-03-09T14:36:09.371Z,2.85
2019-03-09T14:38:38.154Z,2.80
2019-03-09T14:41:07.494Z,3.50
2019-03-09T14:43:36.227Z,4.45
2019-03-09T14:46:05.324Z,3.60
2019-03-09T14:48:34.065Z,3.58
2019-03-09T14:51:02.749Z,3.17
2019-03-09T14:53:31.939Z,2.90
2019-03-09T14:56:00.597Z,4.05
2019-03-09T14:58:29.775Z,3.33
2019-03-09T15:00:58.503Z,2.75
2019-03-09T15:03:27.679Z,2.93
2019-03-09T15:05:56.674Z,3.92
2019-03-09T15:08:26.176Z,5.10
2019-03-09T15:10:55.917Z,1.67
2019-03-09T15:13:24.642Z,1.87
2019-03-09T15:15:53.630Z,2.42
2019-03-09T15:18:22.403Z,2.50
2019-03-09T15:20:51.429Z,6.37
2019-03-09T15:23:20.411Z,2.63
2019-03-09T15:25:51.578Z,2.60
2019-03-09T15:28:20.274Z,3.10
2019-03-09T15:30:49.395Z,3.47
2019-03-09T15:33:18.139Z,2.40
2019-03-09T15:35:47.114Z,2.02
2019-03-09T15:38:15.924Z,2.00
2019-03-09T15:40:44.674Z,2.27
2019-03-09T15:43:15.172Z,2.20
2019-03-09T15:45:44.486Z,2.67
2019-03-09T15:48:13.232Z,2.77
2019-03-09T15:50:42.013Z,2.33
2019-03-09T15:53:12.250Z,2.35
2019-03-09T15:55:42.025Z,2.63
2019-03-09T15:58:10.992Z,2.30
2019-03-09T16:00:39.829Z,1.60
2019-03-09T16:03:08.513Z,1.80
2019-03-09T16:05:37.458Z,1.87
2019-03-09T16:08:06.240Z,1.53
2019-03-09T16:10:34.930Z,1.50
2019-03-09T16:13:03.830Z,1.70
2019-03-09T16:15:32.669Z,0.78
2019-03-09T16:18:01.697Z,1.00
2019-03-09T16:20:30.606Z,1.13
2019-03-09T16:22:59.593Z,0.97
2019-03-09T16:25:29.134Z,1.30
2019-03-09T16:27:57.900Z,1.30
2019-03-09T16:30:26.749Z,1.23
2019-03-09T16:32:55.469Z,1.17
2019-03-09T16:35:25.998Z,1.30
2019-03-09T16:37:54.641Z,1.20
2019-03-09T16:40:23.469Z,1.27
2019-03-09T16:42:52.145Z,1.30
2019-03-09T16:45:21.219Z,1.40
2019-03-09T16:47:49.880Z,1.30
2019-03-09T16:50:18.773Z,1.30
2019-03-09T16:52:48.067Z,3.03
2019-03-09T16:55:17.167Z,0.90
2019-03-09T16:57:49.443Z,1.20
2019-03-09T17:00:18.898Z,1.27
2019-03-09T17:02:47.918Z,1.10
2019-03-09T17:05:17.099Z,1.87
2019-03-09T17:07:46.022Z,1.50
2019-03-09T17:10:14.986Z,1.20
2019-03-09T17:12:43.637Z,1.10
2019-03-09T17:15:13.536Z,1.10
2019-03-09T17:17:42.202Z,1.67
2019-03-09T17:20:11.240Z,1.30
2019-03-09T17:22:39.931Z,1.50
2019-03-09T17:25:08.754Z,1.47
2019-03-09T17:27:37.501Z,2.47
2019-03-09T17:30:07.169Z,2.60
2019-03-09T17:32:35.876Z,2.90
2019-03-09T17:35:04.723Z,2.73
2019-03-09T17:37:33.552Z,1.43
2019-03-09T17:40:02.434Z,1.60
2019-03-09T17:42:31.305Z,2.03
2019-03-09T17:45:00.050Z,1.70
2019-03-09T17:47:29.197Z,1.25
2019-03-09T17:49:57.878Z,2.17
2019-03-09T17:52:26.657Z,1.30
2019-03-09T17:54:55.553Z,1.90
2019-03-09T17:57:25.428Z,1.50
2019-03-09T17:59:55.305Z,1.80
2019-03-09T18:02:26.762Z,1.50
2019-03-09T18:04:55.464Z,1.80
2019-03-09T18:07:24.252Z,2.27
2019-03-09T18:09:52.924Z,1.33
2019-03-09T18:12:23.449Z,1.00
2019-03-09T18:14:52.563Z,1.43
2019-03-09T18:17:21.420Z,1.37
2019-03-09T18:19:50.097Z,2.40
2019-03-09T18:22:19.097Z,1.17
2019-03-09T18:24:48.894Z,1.43
2019-03-09T18:27:17.577Z,2.13
2019-03-09T18:29:46.650Z,1.67
2019-03-09T18:32:15.557Z,1.60
2019-03-09T18:34:44.237Z,1.10
2019-03-09T18:37:13.072Z,1.87
2019-03-09T18:39:41.772Z,1.77
2019-03-09T18:42:10.474Z,1.47
2019-03-09T18:44:39.270Z,1.67
2019-03-09T18:47:07.959Z,1.60
2019-03-09T18:49:36.647Z,1.77
2019-03-09T18:52:05.520Z,1.87
2019-03-09T18:54:34.180Z,1.67
2019-03-09T18:57:02.982Z,2.37
2019-03-09T18:59:31.686Z,1.93
2019-03-09T19:02:00.375Z,1.93
2019-03-09T19:04:29.137Z,2.10
2019-03-09T19:06:58.189Z,2.20
2019-03-09T19:09:26.858Z,2.40
2019-03-09T19:11:55.529Z,2.20
2019-03-09T19:14:24.322Z,2.13
2019-03-09T19:16:53.010Z,2.50
2019-03-09T19:19:22.143Z,2.23
2019-03-09T19:21:50.940Z,2.30
2019-03-09T19:24:19.604Z,2.08
2019-03-09T19:26:48.498Z,2.13
2019-03-09T19:29:17.658Z,1.87
2019-03-09T19:31:46.354Z,2.37
2019-03-09T19:34:15.088Z,2.20
2019-03-09T19:36:44.408Z,2.00
2019-03-09T19:39:13.155Z,1.93
2019-03-09T19:41:42.962Z,1.97
2019-03-09T19:44:11.732Z,2.23
2019-03-09T19:46:40.629Z,2.20
2019-03-09T19:49:09.314Z,1.97
2019-03-09T19:51:38.365Z,2.43
2019-03-09T19:54:07.042Z,2.30
2019-03-09T19:56:35.717Z,2.13
2019-03-09T19:59:04.438Z,2.57
2019-03-09T20:01:33.122Z,2.10
2019-03-09T20:04:01.809Z,2.70
2019-03-09T20:06:30.510Z,2.60
2019-03-09T20:08:59.218Z,2.37
2019-03-09T20:11:28.206Z,2.57
2019-03-09T20:13:56.885Z,1.87
2019-03-09T20:16:25.559Z,2.57
2019-03-09T20:18:54.264Z,2.07
2019-03-09T20:21:25.150Z,1.40
2019-03-09T20:23:54.089Z,1.27
2019-03-09T20:26:23.801Z,1.67
2019-03-09T20:28:53.159Z,1.70
2019-03-09T20:31:22.041Z,0.60
2019-03-09T20:33:50.822Z,1.53
2019-03-09T20:36:19.608Z,1.27
2019-03-09T20:38:48.286Z,1.27
2019-03-09T20:41:16.968Z,1.20
2019-03-09T20:43:45.666Z,1.20
2019-03-09T20:46:14.363Z,1.33
2019-03-09T20:48:43.295Z,1.13
2019-03-09T20:51:12.391Z,1.27
2019-03-09T20:53:41.215Z,0.80
2019-03-09T20:56:09.890Z,1.07
2019-03-09T20:58:38.920Z,0.90
2019-03-09T21:01:08.331Z,0.93
2019-03-09T21:03:37.270Z,0.90
2019-03-09T21:06:06.290Z,1.07
2019-03-09T21:08:35.493Z,1.30
2019-03-09T21:11:04.531Z,2.13
2019-03-09T21:13:33.349Z,1.13
2019-03-09T21:16:02.024Z,2.07
2019-03-09T21:18:30.706Z,0.90
2019-03-09T21:21:03.047Z,1.70
2019-03-09T21:23:32.730Z,1.03
2019-03-09T21:26:01.697Z,1.33
2019-03-09T21:28:30.473Z,1.20
2019-03-09T21:30:59.165Z,1.00
2019-03-09T21:33:27.842Z,1.57
2019-03-09T21:35:57.847Z,1.30
2019-03-09T21:38:26.846Z,1.37
2019-03-09T21:40:57.214Z,1.73
2019-03-09T21:43:25.897Z,2.17
2019-03-09T21:45:54.722Z,1.70
2019-03-09T21:48:23.571Z,1.37
2019-03-09T21:50:52.594Z,1.73
2019-03-09T21:53:21.287Z,0.80
2019-03-09T21:55:50.519Z,1.20
2019-03-09T21:58:19.302Z,1.10
2019-03-09T22:00:51.125Z,1.03
2019-03-09T22:03:19.849Z,1.17
2019-03-09T22:05:48.789Z,1.20
2019-03-09T22:08:17.473Z,1.13
2019-03-09T22:10:46.397Z,1.30
2019-03-09T22:13:15.896Z,1.30
2019-03-09T22:15:44.746Z,1.33
2019-03-09T22:18:14.350Z,1.30
2019-03-09T22:20:43.190Z,1.03
2019-03-09T22:23:11.872Z,0.87
2019-03-09T22:25:40.718Z,1.40
2019-03-09T22:28:09.650Z,0.97
2019-03-09T22:30:38.834Z,0.53
2019-03-09T22:33:07.519Z,0.73
2019-03-09T22:35:36.695Z,1.37
2019-03-09T22:38:05.462Z,1.00
2019-03-09T22:40:34.162Z,1.93
2019-03-09T22:43:04.322Z,1.10
2019-03-09T22:45:33.275Z,1.07
2019-03-09T22:48:01.936Z,1.37
2019-03-09T22:50:31.485Z,1.00
2019-03-09T22:53:00.186Z,0.77
2019-03-09T22:55:29.414Z,1.10
2019-03-09T22:57:59.959Z,1.57
2019-03-09T23:00:28.761Z,0.97
2019-03-09T23:02:57.773Z,1.27
2019-03-09T23:05:26.717Z,1.60
2019-03-09T23:07:55.625Z,1.37
2019-03-09T23:10:24.355Z,0.93
2019-03-09T23:12:53.660Z,1.13
2019-03-09T23:15:22.479Z,0.73
2019-03-09T23:17:51.478Z,1.13
2019-03-09T23:20:21.145Z,0.93
2019-03-09T23:22:49.897Z,1.00
2019-03-09T23:25:18.974Z,1.80
2019-03-09T23:27:49.409Z,1.27
2019-03-09T23:30:18.255Z,1.00
2019-03-09T23:32:47.081Z,0.93
2019-03-09T23:35:17.368Z,1.00
2019-03-09T23:37:46.432Z,0.93
2019-03-09T23:40:15.431Z,1.20
2019-03-09T23:42:44.980Z,1.30
2019-03-09T23:45:14.001Z,0.82
2019-03-09T23:47:42.730Z,1.00
2019-03-09T23:50:13.231Z,0.63
2019-03-09T23:52:43.629Z,0.97
2019-03-09T23:55:21.118Z,1.20
2019-03-09T23:57:44.746Z,1.10
